Ecokeeper — SVTY — position and weather

sailwx.info

Track history (hours):
 
Tides and Currents Weather Stations Pressure Air Temp Water Temp Dewpoint Dewpoint Depression Visibility Wind Speed Wind Dir Waves Ship Positions

Ecokeeper

Last reported at 2017-Aug-16 21:39 UTC. Time now 2017-Aug-18 10:52 UTC.
Position N 37°38' E 023°48'.

Length 90 m; draft 5.4 m.

Type: Tanker. MMSI: 240689000.

Date/timePositionNaut miles runAvg speedWind from/ knotsBaromVisibWave heightAir tempDewpointWater temp
2017-Aug-16 21:39N 37°38' E 023°48'2 9.8
2017-Aug-16 21:29N 37°38' E 023°46'4 9.1
2017-Aug-16 21:00N 37°41' E 023°42'5 9.9
2017-Aug-16 20:30N 37°45' E 023°39'5 9.8
2017-Aug-16 20:00N 37°50' E 023°36'5 9.8
2017-Aug-16 19:30N 37°54' E 023°35'3 5.5
2017-Aug-16 19:00N 37°57' E 023°34'0 0.4
2017-Aug-16 18:30N 37°57' E 023°34'0 0.0
2017-Aug-16 08:00N 37°57' E 023°34'0 0.0
2017-Aug-16 07:30N 37°57' E 023°34'0 0.0
2017-Aug-16 07:01N 37°57' E 023°34'0 0.0
2017-Aug-16 06:30N 37°57' E 023°34'0 0.0
2017-Aug-16 06:00N 37°57' E 023°34'0 0.0
2017-Aug-14 10:36N 37°57' E 023°34'0 0.2
2017-Aug-14 10:31N 37°57' E 023°34'2 4.6
2017-Aug-14 10:00N 37°57' E 023°37'0 0.5
2017-Aug-14 09:30N 37°57' E 023°37'0 0.0
2017-Aug-14 09:00N 37°57' E 023°37'0 0.0
2017-Aug-14 08:30N 37°57' E 023°37'0 0.0
2017-Aug-14 08:00N 37°57' E 023°37'0 0.0
2017-Aug-14 07:30N 37°57' E 023°37'0 0.0
2017-Aug-14 07:00N 37°57' E 023°37'0 0.0
2017-Aug-14 06:30N 37°57' E 023°37'0 0.0
2017-Aug-14 06:00N 37°57' E 023°37'0 0.0
2017-Aug-14 05:30N 37°57' E 023°37'0 0.0
2017-Aug-14 05:00N 37°57' E 023°37'0 0.0
2017-Aug-14 04:31N 37°57' E 023°37'0 0.0
2017-Aug-14 04:00N 37°57' E 023°37'0 0.0
2017-Aug-14 03:31N 37°57' E 023°37'0 0.0
2017-Aug-14 03:00N 37°57' E 023°37'0 0.0
2017-Aug-14 02:30N 37°57' E 023°37'0 0.0
2017-Aug-14 02:00N 37°57' E 023°37'0 0.0
2017-Aug-14 01:30N 37°57' E 023°37'0 0.0
2017-Aug-14 01:00N 37°57' E 023°37'0 0.0
2017-Aug-14 00:30N 37°57' E 023°37'0 0.0
2017-Aug-14 00:00N 37°57' E 023°37'0 0.0
2017-Aug-13 23:31N 37°57' E 023°37'0 0.0
2017-Aug-13 23:01N 37°57' E 023°37'0 0.0
2017-Aug-13 22:30N 37°57' E 023°37'0 0.0
2017-Aug-13 22:01N 37°57' E 023°37'0 0.0
2017-Aug-13 21:30N 37°57' E 023°37'0 0.0
2017-Aug-13 21:00N 37°57' E 023°37'0 0.0
2017-Aug-13 20:30N 37°57' E 023°37'0 0.0
2017-Aug-13 20:00N 37°57' E 023°37'0 0.0
2017-Aug-13 19:30N 37°57' E 023°37'0 0.0
2017-Aug-13 19:00N 37°57' E 023°37'0 0.0
2017-Aug-13 18:30N 37°57' E 023°37'0 0.0
2017-Aug-13 18:01N 37°57' E 023°37'0 0.0
2017-Aug-13 17:31N 37°57' E 023°37'0 0.0
2017-Aug-13 17:00N 37°57' E 023°37'0 0.0
2017-Aug-13 16:31N 37°57' E 023°37'0 0.0
2017-Aug-13 16:00N 37°57' E 023°37'0 0.0
2017-Aug-13 15:31N 37°57' E 023°37'0 0.0
2017-Aug-13 15:01N 37°57' E 023°37'0 0.0
2017-Aug-13 14:31N 37°57' E 023°37'0 0.0
2017-Aug-13 14:00N 37°57' E 023°37'0 0.0
2017-Aug-13 13:30N 37°57' E 023°37'0 0.0
2017-Aug-13 13:00N 37°57' E 023°37'2 4.9
2017-Aug-13 12:31N 37°55' E 023°35'2 4.9
2017-Aug-13 12:00N 37°53' E 023°33'0 0.0
2017-Aug-13 11:31N 37°53' E 023°33'0 0.0
2017-Aug-13 11:00N 37°53' E 023°33'0 0.0
2017-Aug-13 10:30N 37°53' E 023°33'0 0.0
2017-Aug-13 10:00N 37°53' E 023°33'0 0.0
2017-Aug-13 09:31N 37°53' E 023°33'0 0.0
2017-Aug-13 09:00N 37°53' E 023°33'0 0.0
2017-Aug-13 08:30N 37°53' E 023°33'0 0.0
2017-Aug-13 08:00N 37°53' E 023°33'0 0.0
2017-Aug-13 07:31N 37°53' E 023°33'0 0.1
2017-Aug-13 07:01N 37°53' E 023°33'0 0.0
2017-Aug-13 06:31N 37°53' E 023°33'0 0.0
2017-Aug-13 06:01N 37°53' E 023°33'0 0.0
2017-Aug-13 05:30N 37°53' E 023°33'0 0.0
2017-Aug-13 05:01N 37°53' E 023°33'2 4.9
2017-Aug-13 04:30N 37°55' E 023°34'2 4.0
2017-Aug-13 04:00N 37°57' E 023°34'0 0.0
2017-Aug-11 09:48N 37°57' E 023°34'0 1.4
2017-Aug-11 09:30N 37°57' E 023°34'4 7.2
2017-Aug-11 09:00N 37°54' E 023°33'2 4.3
2017-Aug-11 08:30N 37°52' E 023°32'0 0.0
2017-Aug-11 08:00N 37°52' E 023°32'0 0.0
2017-Aug-11 07:30N 37°52' E 023°32'0 0.0
2017-Aug-11 07:00N 37°52' E 023°32'0 0.2
2017-Aug-11 06:30N 37°52' E 023°32'3 6.7
2017-Aug-11 06:00N 37°55' E 023°34'2 4.7
2017-Aug-11 05:30N 37°57' E 023°34'0 0.1
2017-Aug-11 05:00N 37°57' E 023°34'0 0.0
2017-Aug-10 14:27N 37°57' E 023°34'1 1.4
2017-Aug-10 14:00N 37°58' E 023°34'0 0.0
2017-Aug-10 13:30N 37°58' E 023°34'0 0.0
2017-Aug-10 13:01N 37°58' E 023°34'0 0.0
2017-Aug-10 12:30N 37°58' E 023°34'0 0.0
2017-Aug-10 12:00N 37°58' E 023°34'0 0.0
2017-Aug-10 11:30N 37°58' E 023°34'0 0.0
2017-Aug-10 11:00N 37°58' E 023°34'0 0.0
2017-Aug-10 10:30N 37°58' E 023°34'0 0.0
2017-Aug-10 10:00N 37°58' E 023°34'0 0.0
2017-Aug-10 09:30N 37°58' E 023°34'0 0.0
2017-Aug-10 09:00N 37°58' E 023°34'0 0.0
2017-Aug-10 08:30N 37°58' E 023°34'0 0.0
2017-Aug-10 08:00N 37°58' E 023°34'0 0.0
2017-Aug-10 07:30N 37°58' E 023°34'0 0.0
2017-Aug-10 07:00N 37°58' E 023°34'0 0.0
2017-Aug-10 06:30N 37°58' E 023°34'0 0.0
2017-Aug-10 06:00N 37°58' E 023°34'0 1.0
2017-Aug-10 05:30N 37°57' E 023°34'0 0.4
2017-Aug-10 05:00N 37°57' E 023°34'  
2017-Aug-07 22:41N 37°57' E 023°34'0 1.2
2017-Aug-07 22:30N 37°57' E 023°34'3 6.4
2017-Aug-07 22:00N 37°54' E 023°33'4 8.6
2017-Aug-07 21:30N 37°50' E 023°31'0 0.4
2017-Aug-07 21:00N 37°50' E 023°31'0 0.0
2017-Aug-07 20:30N 37°50' E 023°31'0 0.0
2017-Aug-07 20:00N 37°50' E 023°31'0 0.0
2017-Aug-07 19:30N 37°50' E 023°31'0 0.0
2017-Aug-07 19:00N 37°50' E 023°31'0 0.1
2017-Aug-07 18:30N 37°50' E 023°31'0 0.1
2017-Aug-07 18:00N 37°50' E 023°31'0 0.1
2017-Aug-07 17:30N 37°50' E 023°31'0 0.0
2017-Aug-07 17:00N 37°50' E 023°31'0 0.0
2017-Aug-07 16:30N 37°50' E 023°31'0 0.1
2017-Aug-07 16:00N 37°50' E 023°31'0 0.1
2017-Aug-07 15:30N 37°50' E 023°31'0 0.3
2017-Aug-07 15:00N 37°50' E 023°31'2 4.6
2017-Aug-07 14:30N 37°52' E 023°30'0 0.2
2017-Aug-07 14:00N 37°52' E 023°30'0 0.1
2017-Aug-07 13:30N 37°52' E 023°30'0 0.1
2017-Aug-07 13:00N 37°52' E 023°30'0 0.0
2017-Aug-07 12:30N 37°52' E 023°30'0 0.1
2017-Aug-07 12:00N 37°52' E 023°30'0 0.1
2017-Aug-07 11:30N 37°52' E 023°30'0 0.0
2017-Aug-07 11:00N 37°52' E 023°30'0 0.1
2017-Aug-07 10:30N 37°52' E 023°30'0 0.0
2017-Aug-07 10:00N 37°52' E 023°30'0 0.0
2017-Aug-07 09:30N 37°52' E 023°30'0 0.1
2017-Aug-07 09:00N 37°52' E 023°30'0 0.1
2017-Aug-07 08:30N 37°52' E 023°30'0 0.1
2017-Aug-07 08:00N 37°52' E 023°30'0 0.1
2017-Aug-07 07:30N 37°52' E 023°30'0 0.2
2017-Aug-07 06:59N 37°52' E 023°30'0 0.1
2017-Aug-07 06:30N 37°52' E 023°30'0 0.2
2017-Aug-07 06:00N 37°52' E 023°30'3 7.0
2017-Aug-07 05:30N 37°54' E 023°33'3 5.1
2017-Aug-07 05:00N 37°57' E 023°34'  
Track history (hours):
 
Tides and Currents Weather Stations Pressure Air Temp Water Temp Dewpoint Dewpoint Depression Visibility Wind Speed Wind Dir Waves Ship Positions

Ecokeeper

Last reported at 2017-Aug-16 21:39 UTC. Time now 2017-Aug-18 10:52 UTC.
Position N 37°38' E 023°48'.

Length 90 m; draft 5.4 m.

Type: Tanker. MMSI: 240689000.

Date/timePositionNaut miles runAvg speedWind from/ knotsBaromVisibWave heightAir tempDewpointWater temp
2017-Aug-16 21:39N 37°38' E 023°48'2 9.8
2017-Aug-16 21:29N 37°38' E 023°46'4 9.1
2017-Aug-16 21:00N 37°41' E 023°42'5 9.9
2017-Aug-16 20:30N 37°45' E 023°39'5 9.8
2017-Aug-16 20:00N 37°50' E 023°36'5 9.8
2017-Aug-16 19:30N 37°54' E 023°35'3 5.5
2017-Aug-16 19:00N 37°57' E 023°34'0 0.4
2017-Aug-16 18:30N 37°57' E 023°34'0 0.0
2017-Aug-16 08:00N 37°57' E 023°34'0 0.0
2017-Aug-16 07:30N 37°57' E 023°34'0 0.0
2017-Aug-16 07:01N 37°57' E 023°34'0 0.0
2017-Aug-16 06:30N 37°57' E 023°34'0 0.0
2017-Aug-16 06:00N 37°57' E 023°34'0 0.0
2017-Aug-14 10:36N 37°57' E 023°34'0 0.2
2017-Aug-14 10:31N 37°57' E 023°34'2 4.6
2017-Aug-14 10:00N 37°57' E 023°37'0 0.5
2017-Aug-14 09:30N 37°57' E 023°37'0 0.0
2017-Aug-14 09:00N 37°57' E 023°37'0 0.0
2017-Aug-14 08:30N 37°57' E 023°37'0 0.0
2017-Aug-14 08:00N 37°57' E 023°37'0 0.0
2017-Aug-14 07:30N 37°57' E 023°37'0 0.0
2017-Aug-14 07:00N 37°57' E 023°37'0 0.0
2017-Aug-14 06:30N 37°57' E 023°37'0 0.0
2017-Aug-14 06:00N 37°57' E 023°37'0 0.0
2017-Aug-14 05:30N 37°57' E 023°37'0 0.0
2017-Aug-14 05:00N 37°57' E 023°37'0 0.0
2017-Aug-14 04:31N 37°57' E 023°37'0 0.0
2017-Aug-14 04:00N 37°57' E 023°37'0 0.0
2017-Aug-14 03:31N 37°57' E 023°37'0 0.0
2017-Aug-14 03:00N 37°57' E 023°37'0 0.0
2017-Aug-14 02:30N 37°57' E 023°37'0 0.0
2017-Aug-14 02:00N 37°57' E 023°37'0 0.0
2017-Aug-14 01:30N 37°57' E 023°37'0 0.0
2017-Aug-14 01:00N 37°57' E 023°37'0 0.0
2017-Aug-14 00:30N 37°57' E 023°37'0 0.0
2017-Aug-14 00:00N 37°57' E 023°37'0 0.0
2017-Aug-13 23:31N 37°57' E 023°37'0 0.0
2017-Aug-13 23:01N 37°57' E 023°37'0 0.0
2017-Aug-13 22:30N 37°57' E 023°37'0 0.0
2017-Aug-13 22:01N 37°57' E 023°37'0 0.0
2017-Aug-13 21:30N 37°57' E 023°37'0 0.0
2017-Aug-13 21:00N 37°57' E 023°37'0 0.0
2017-Aug-13 20:30N 37°57' E 023°37'0 0.0
2017-Aug-13 20:00N 37°57' E 023°37'0 0.0
2017-Aug-13 19:30N 37°57' E 023°37'0 0.0
2017-Aug-13 19:00N 37°57' E 023°37'0 0.0
2017-Aug-13 18:30N 37°57' E 023°37'0 0.0
2017-Aug-13 18:01N 37°57' E 023°37'0 0.0
2017-Aug-13 17:31N 37°57' E 023°37'0 0.0
2017-Aug-13 17:00N 37°57' E 023°37'0 0.0
2017-Aug-13 16:31N 37°57' E 023°37'0 0.0
2017-Aug-13 16:00N 37°57' E 023°37'0 0.0
2017-Aug-13 15:31N 37°57' E 023°37'0 0.0
2017-Aug-13 15:01N 37°57' E 023°37'0 0.0
2017-Aug-13 14:31N 37°57' E 023°37'0 0.0
2017-Aug-13 14:00N 37°57' E 023°37'0 0.0
2017-Aug-13 13:30N 37°57' E 023°37'0 0.0
2017-Aug-13 13:00N 37°57' E 023°37'2 4.9
2017-Aug-13 12:31N 37°55' E 023°35'2 4.9
2017-Aug-13 12:00N 37°53' E 023°33'0 0.0
2017-Aug-13 11:31N 37°53' E 023°33'0 0.0
2017-Aug-13 11:00N 37°53' E 023°33'0 0.0
2017-Aug-13 10:30N 37°53' E 023°33'0 0.0
2017-Aug-13 10:00N 37°53' E 023°33'0 0.0
2017-Aug-13 09:31N 37°53' E 023°33'0 0.0
2017-Aug-13 09:00N 37°53' E 023°33'0 0.0
2017-Aug-13 08:30N 37°53' E 023°33'0 0.0
2017-Aug-13 08:00N 37°53' E 023°33'0 0.0
2017-Aug-13 07:31N 37°53' E 023°33'0 0.1
2017-Aug-13 07:01N 37°53' E 023°33'0 0.0
2017-Aug-13 06:31N 37°53' E 023°33'0 0.0
2017-Aug-13 06:01N 37°53' E 023°33'0 0.0
2017-Aug-13 05:30N 37°53' E 023°33'0 0.0
2017-Aug-13 05:01N 37°53' E 023°33'2 4.9
2017-Aug-13 04:30N 37°55' E 023°34'2 4.0
2017-Aug-13 04:00N 37°57' E 023°34'0 0.0
2017-Aug-11 09:48N 37°57' E 023°34'0 1.4
2017-Aug-11 09:30N 37°57' E 023°34'4 7.2
2017-Aug-11 09:00N 37°54' E 023°33'2 4.3
2017-Aug-11 08:30N 37°52' E 023°32'0 0.0
2017-Aug-11 08:00N 37°52' E 023°32'0 0.0
2017-Aug-11 07:30N 37°52' E 023°32'0 0.0
2017-Aug-11 07:00N 37°52' E 023°32'0 0.2
2017-Aug-11 06:30N 37°52' E 023°32'3 6.7
2017-Aug-11 06:00N 37°55' E 023°34'2 4.7
2017-Aug-11 05:30N 37°57' E 023°34'0 0.1
2017-Aug-11 05:00N 37°57' E 023°34'0 0.0
2017-Aug-10 14:27N 37°57' E 023°34'1 1.4
2017-Aug-10 14:00N 37°58' E 023°34'0 0.0
2017-Aug-10 13:30N 37°58' E 023°34'0 0.0
2017-Aug-10 13:01N 37°58' E 023°34'0 0.0
2017-Aug-10 12:30N 37°58' E 023°34'0 0.0
2017-Aug-10 12:00N 37°58' E 023°34'0 0.0
2017-Aug-10 11:30N 37°58' E 023°34'0 0.0
2017-Aug-10 11:00N 37°58' E 023°34'0 0.0
2017-Aug-10 10:30N 37°58' E 023°34'0 0.0
2017-Aug-10 10:00N 37°58' E 023°34'0 0.0
2017-Aug-10 09:30N 37°58' E 023°34'0 0.0
2017-Aug-10 09:00N 37°58' E 023°34'0 0.0
2017-Aug-10 08:30N 37°58' E 023°34'0 0.0
2017-Aug-10 08:00N 37°58' E 023°34'0 0.0
2017-Aug-10 07:30N 37°58' E 023°34'0 0.0
2017-Aug-10 07:00N 37°58' E 023°34'0 0.0
2017-Aug-10 06:30N 37°58' E 023°34'0 0.0
2017-Aug-10 06:00N 37°58' E 023°34'0 1.0
2017-Aug-10 05:30N 37°57' E 023°34'0 0.4
2017-Aug-10 05:00N 37°57' E 023°34'  
2017-Aug-07 22:41N 37°57' E 023°34'0 1.2
2017-Aug-07 22:30N 37°57' E 023°34'3 6.4
2017-Aug-07 22:00N 37°54' E 023°33'4 8.6
2017-Aug-07 21:30N 37°50' E 023°31'0 0.4
2017-Aug-07 21:00N 37°50' E 023°31'0 0.0
2017-Aug-07 20:30N 37°50' E 023°31'0 0.0
2017-Aug-07 20:00N 37°50' E 023°31'0 0.0
2017-Aug-07 19:30N 37°50' E 023°31'0 0.0
2017-Aug-07 19:00N 37°50' E 023°31'0 0.1
2017-Aug-07 18:30N 37°50' E 023°31'0 0.1
2017-Aug-07 18:00N 37°50' E 023°31'0 0.1
2017-Aug-07 17:30N 37°50' E 023°31'0 0.0
2017-Aug-07 17:00N 37°50' E 023°31'0 0.0
2017-Aug-07 16:30N 37°50' E 023°31'0 0.1
2017-Aug-07 16:00N 37°50' E 023°31'0 0.1
2017-Aug-07 15:30N 37°50' E 023°31'0 0.3
2017-Aug-07 15:00N 37°50' E 023°31'2 4.6
2017-Aug-07 14:30N 37°52' E 023°30'0 0.2
2017-Aug-07 14:00N 37°52' E 023°30'0 0.1
2017-Aug-07 13:30N 37°52' E 023°30'0 0.1
2017-Aug-07 13:00N 37°52' E 023°30'0 0.0
2017-Aug-07 12:30N 37°52' E 023°30'0 0.1
2017-Aug-07 12:00N 37°52' E 023°30'0 0.1
2017-Aug-07 11:30N 37°52' E 023°30'0 0.0
2017-Aug-07 11:00N 37°52' E 023°30'0 0.1
2017-Aug-07 10:30N 37°52' E 023°30'0 0.0
2017-Aug-07 10:00N 37°52' E 023°30'0 0.0
2017-Aug-07 09:30N 37°52' E 023°30'0 0.1
2017-Aug-07 09:00N 37°52' E 023°30'0 0.1
2017-Aug-07 08:30N 37°52' E 023°30'0 0.1
2017-Aug-07 08:00N 37°52' E 023°30'0 0.1
2017-Aug-07 07:30N 37°52' E 023°30'0 0.2
2017-Aug-07 06:59N 37°52' E 023°30'0 0.1
2017-Aug-07 06:30N 37°52' E 023°30'0 0.2
2017-Aug-07 06:00N 37°52' E 023°30'3 7.0
2017-Aug-07 05:30N 37°54' E 023°33'3 5.1
2017-Aug-07 05:00N 37°57' E 023°34'  

Dump ship's entire track history